Time;durP1;ratioP1;P1;durP2;ratioP2;P2;SDS_P1;SDS_P2;PMS_P1;PMS_P2;Temp;Humidity;BMP_temperature;BMP_pressure;BME280_temperature;BME280_humidity;BME280_pressure;Samples;Min_cycle;Max_cycle;Signal;HPM_P1;HPM_P2
2022/07/11 00:00:11;;;;;;;7.15;3.37;;;;;;;13.77;89.54;98947.01;1728927;81;20991;-94
2022/07/11 00:02:40;;;;;;;5.10;2.72;;;;;;;13.77;88.85;98948.75;1768250;81;20944;-93
2022/07/11 00:05:09;;;;;;;6.50;2.80;;;;;;;13.76;87.96;98947.91;1768071;81;20978;-94
2022/07/11 00:07:37;;;;;;;8.10;3.00;;;;;;;13.78;87.61;98945.23;1768281;81;21079;-93
2022/07/11 00:10:05;;;;;;;5.03;3.02;;;;;;;13.76;87.99;98947.91;1760712;81;21514;-94
2022/07/11 00:12:31;;;;;;;5.60;3.27;;;;;;;13.75;88.66;98946.66;1759720;81;20962;-92
2022/07/11 00:14:58;;;;;;;7.58;3.75;;;;;;;13.76;86.94;98941.84;1763817;81;20932;-92
2022/07/11 00:17:25;;;;;;;5.83;3.05;;;;;;;13.72;88.68;98945.87;1769146;81;21034;-92
2022/07/11 00:19:52;;;;;;;8.95;3.25;;;;;;;13.69;88.55;98946.47;1766172;81;21095;-92
2022/07/11 00:22:20;;;;;;;12.10;3.40;;;;;;;13.70;88.03;98946.84;1761625;81;21038;-92
2022/07/11 00:24:47;;;;;;;8.33;3.37;;;;;;;13.68;88.82;98936.92;1762549;81;20980;-93
2022/07/11 00:27:14;;;;;;;6.30;3.00;;;;;;;13.66;89.13;98932.22;1762642;81;20975;-93
2022/07/11 00:29:41;;;;;;;5.45;2.72;;;;;;;13.67;88.97;98939.16;1756795;81;21509;-92
2022/07/11 00:32:08;;;;;;;7.90;3.27;;;;;;;13.64;88.99;98933.57;1745026;81;21011;-93
2022/07/11 00:34:35;;;;;;;9.78;2.75;;;;;;;13.63;89.26;98937.58;1759998;81;20999;-92
2022/07/11 00:37:02;;;;;;;5.78;2.98;;;;;;;13.61;89.90;98937.63;1768606;81;21043;-92
2022/07/11 00:39:29;;;;;;;6.17;2.72;;;;;;;13.59;89.18;98932.92;1767983;81;20959;-93
2022/07/11 00:41:56;;;;;;;5.78;2.80;;;;;;;13.60;88.69;98929.85;1767724;81;21483;-93
2022/07/11 00:44:23;;;;;;;7.70;2.95;;;;;;;13.55;89.72;98937.88;1769290;81;20987;-93
2022/07/11 00:46:49;;;;;;;5.12;2.62;;;;;;;13.56;88.59;98940.03;1761722;81;20978;-93
2022/07/11 00:49:16;;;;;;;5.10;2.80;;;;;;;13.51;88.96;98928.47;1760735;81;21002;-93
2022/07/11 00:51:43;;;;;;;8.15;3.08;;;;;;;13.44;89.91;98932.22;1763918;81;21002;-92
2022/07/11 00:54:11;;;;;;;6.47;2.80;;;;;;;13.42;89.41;98927.52;1764460;81;20966;-91
2022/07/11 00:56:38;;;;;;;4.75;2.85;;;;;;;13.37;90.25;98931.63;1734943;81;21459;-92
2022/07/11 00:59:05;;;;;;;5.35;2.87;;;;;;;13.37;89.25;98932.92;1764421;81;20996;-93
2022/07/11 01:01:34;;;;;;;6.42;2.72;;;;;;;13.32;89.77;98935.69;1764442;81;20991;-94
2022/07/11 01:04:02;;;;;;;9.30;3.55;;;;;;;13.35;89.85;98938.66;1770603;80;20972;-93
2022/07/11 01:06:30;;;;;;;5.60;3.00;;;;;;;13.31;89.91;98937.08;1764508;81;21014;-94
2022/07/11 01:08:56;;;;;;;10.03;3.37;;;;;;;13.30;90.85;98934.06;1764216;81;21046;-93
2022/07/11 01:11:23;;;;;;;6.35;2.87;;;;;;;13.31;89.50;98935.78;1734269;81;21039;-92
2022/07/11 01:13:50;;;;;;;6.75;3.20;;;;;;;13.25;90.71;98935.95;1764053;81;21042;-93
2022/07/11 01:16:22;;;;;;;6.15;3.10;;;;;;;13.24;90.98;98935.11;1757867;81;21027;-93
2022/07/11 01:18:51;;;;;;;5.95;3.10;;;;;;;13.23;91.10;98930.81;1757883;82;20963;-93
2022/07/11 01:21:40;;;;;;;7.08;3.25;;;;;;;13.24;91.27;98933.80;1757867;82;21503;-94
2022/07/11 01:24:07;;;;;;;5.15;2.80;;;;;;;13.24;91.78;98928.59;1757834;81;21463;-93
2022/07/11 01:26:34;;;;;;;6.90;4.60;;;;;;;13.25;91.12;98929.00;1758055;82;20986;-92
2022/07/11 01:29:07;;;;;;;7.67;3.08;;;;;;;13.26;91.44;98939.81;1762298;81;20995;-92
2022/07/11 01:31:34;;;;;;;6.95;3.45;;;;;;;13.25;91.21;98931.61;1764426;81;20962;-92
2022/07/11 01:34:00;;;;;;;6.95;3.47;;;;;;;13.26;91.06;98929.84;1734825;81;21073;-93
2022/07/11 01:36:27;;;;;;;11.08;3.40;;;;;;;13.27;91.62;98930.22;1764376;81;21462;-89
2022/07/11 01:38:53;;;;;;;8.70;3.25;;;;;;;13.27;92.05;98933.70;1764492;81;21029;-93
2022/07/11 01:41:20;;;;;;;5.53;3.58;;;;;;;13.29;91.34;98938.44;1764346;81;21010;-93
2022/07/11 01:43:47;;;;;;;10.23;3.83;;;;;;;13.28;91.48;98938.00;1720119;83;20998;-93
2022/07/11 01:46:14;;;;;;;10.68;3.65;;;;;;;13.31;92.24;98937.08;1698908;84;21027;-93
2022/07/11 01:48:41;;;;;;;14.45;3.87;;;;;;;13.31;91.33;98943.61;1734312;83;20946;-92
2022/07/11 01:51:08;;;;;;;7.83;3.70;;;;;;;13.31;91.58;98948.37;1769104;78;21106;-92
2022/07/11 01:53:35;;;;;;;7.22;3.65;;;;;;;13.36;90.19;98944.27;1762577;80;21412;-94
2022/07/11 01:56:01;;;;;;;7.40;3.42;;;;;;;13.31;91.47;98948.83;1790868;80;20948;-92
2022/07/11 01:58:33;;;;;;;6.25;3.70;;;;;;;13.31;90.62;98947.06;1790770;80;21447;-92
2022/07/11 02:00:58;;;;;;;7.75;3.27;;;;;;;13.29;90.94;98952.80;1789868;80;21035;-92
2022/07/11 02:03:24;;;;;;;5.95;3.72;;;;;;;13.30;91.64;98956.25;1789019;79;21011;-91
2022/07/11 02:05:52;;;;;;;6.87;3.22;;;;;;;13.31;91.52;98951.45;1764538;81;21030;-93
2022/07/11 02:08:18;;;;;;;10.15;3.27;;;;;;;13.35;91.39;98957.37;1764298;80;21468;-93
2022/07/11 02:10:48;;;;;;;6.47;3.35;;;;;;;13.32;91.76;98957.89;1764536;81;21027;-92
2022/07/11 02:13:18;;;;;;;7.28;3.55;;;;;;;13.34;91.01;98961.75;1764330;81;21004;-93
2022/07/11 02:15:47;;;;;;;6.92;3.52;;;;;;;13.38;90.44;98971.17;1764272;81;21446;-93
2022/07/11 02:18:14;;;;;;;8.70;3.27;;;;;;;13.38;91.18;98969.86;1764392;81;20995;-92
2022/07/11 02:20:42;;;;;;;6.45;3.15;;;;;;;13.41;90.76;98972.80;1739125;81;20983;-92
2022/07/11 02:23:09;;;;;;;5.20;3.08;;;;;;;13.44;90.53;98971.39;1727856;83;21015;-94
2022/07/11 02:25:39;;;;;;;6.28;3.75;;;;;;;13.46;90.50;98974.33;1727904;83;20994;-92
2022/07/11 02:28:13;;;;;;;11.20;3.98;;;;;;;13.51;90.08;98972.86;1727741;83;21023;-92
2022/07/11 02:30:42;;;;;;;9.15;3.77;;;;;;;13.59;91.32;98977.33;1725682;82;21028;-93
2022/07/11 02:33:15;;;;;;;4.87;3.10;;;;;;;13.68;91.01;98980.86;1727803;83;21043;-90
2022/07/11 02:35:38;;;;;;;8.23;3.87;;;;;;;13.77;91.17;98980.10;1725854;82;20956;-92
2022/07/11 02:38:05;;;;;;;11.45;4.47;;;;;;;13.82;90.08;98983.39;1727814;83;21047;-92
2022/07/11 02:40:32;;;;;;;6.28;3.30;;;;;;;13.84;90.07;98986.80;1728072;83;20986;-92
2022/07/11 02:42:59;;;;;;;10.50;3.45;;;;;;;13.87;90.01;98985.38;1727858;83;21019;-93
2022/07/11 02:45:26;;;;;;;5.10;2.90;;;;;;;13.89;90.00;98984.86;1727879;83;21030;-92
2022/07/11 02:47:52;;;;;;;6.87;3.00;;;;;;;13.87;89.56;98980.16;1752697;81;21483;-92
2022/07/11 02:50:19;;;;;;;5.50;3.10;;;;;;;13.88;89.60;98976.61;1764568;81;21129;-93
2022/07/11 02:52:46;;;;;;;6.72;3.50;;;;;;;13.89;89.32;98980.48;1764958;80;21514;-93
2022/07/11 02:55:15;;;;;;;5.87;3.27;;;;;;;13.85;89.70;98975.45;1733433;81;20975;-93
2022/07/11 02:57:42;;;;;;;7.28;3.70;;;;;;;13.82;90.01;98986.85;1729732;83;21030;-94
2022/07/11 03:00:14;;;;;;;5.33;3.55;;;;;;;13.79;88.71;98987.45;1743157;80;21050;-90
2022/07/11 03:05:51;;;;;;;7.72;3.52;;;;;;;13.72;87.97;98994.20;1693940;82;21093;-89
2022/07/11 03:08:18;;;;;;;10.20;3.87;;;;;;;13.65;87.71;99000.59;1696153;82;21122;-94
2022/07/11 03:10:45;;;;;;;10.53;3.30;;;;;;;13.60;89.79;98994.69;1713821;83;21054;-93
2022/07/11 03:13:12;;;;;;;6.50;3.55;;;;;;;13.57;88.76;99001.36;1712770;84;21031;-93
2022/07/11 03:15:39;;;;;;;6.67;3.58;;;;;;;13.57;89.50;99009.19;1712725;84;21027;-94
2022/07/11 03:18:07;;;;;;;12.95;3.52;;;;;;;13.59;89.60;99008.67;1713037;84;21027;-94
2022/07/11 03:20:34;;;;;;;6.42;3.40;;;;;;;13.64;89.97;99007.18;1713182;83;21070;-93
2022/07/11 03:23:01;;;;;;;9.30;3.37;;;;;;;13.67;89.99;99013.60;1713456;84;20995;-93
2022/07/11 03:25:28;;;;;;;5.70;3.37;;;;;;;13.69;89.44;99012.63;1713105;84;20991;-94
2022/07/11 03:27:55;;;;;;;6.72;3.40;;;;;;;13.69;89.05;99008.70;1715739;83;21032;-93
2022/07/11 03:30:21;;;;;;;9.70;3.15;;;;;;;13.71;89.47;99004.73;1730632;83;21476;-95
2022/07/11 03:32:48;;;;;;;9.30;3.70;;;;;;;13.75;88.97;99009.36;1736050;83;21008;-95
2022/07/11 03:38:00;;;;;;;6.62;3.98;;;;;;;13.80;89.58;99016.58;1684215;85;21019;-95
2022/07/11 03:40:27;;;;;;;5.87;3.83;;;;;;;13.86;89.52;99018.48;1684212;85;21054;-94
2022/07/11 03:42:54;;;;;;;7.58;4.05;;;;;;;13.91;89.15;99024.38;1685002;84;21546;-95
2022/07/11 03:45:21;;;;;;;6.55;3.85;;;;;;;13.96;89.19;99030.73;1712603;84;21022;-95
2022/07/11 03:47:48;;;;;;;7.97;4.17;;;;;;;14.01;89.05;99027.95;1712321;84;21511;-95
2022/07/11 03:50:16;;;;;;;5.85;3.50;;;;;;;14.04;88.97;99029.11;1718634;83;20966;-94
2022/07/11 03:52:43;;;;;;;9.03;4.00;;;;;;;14.07;88.86;99029.00;1737399;83;21067;-94
2022/07/11 03:55:10;;;;;;;7.22;4.42;;;;;;;14.11;88.75;99023.58;1728596;83;21031;-94
2022/07/11 03:57:37;;;;;;;11.63;4.28;;;;;;;14.17;88.62;99021.64;1712452;84;21037;-95
2022/07/11 04:00:08;;;;;;;11.70;4.12;;;;;;;14.23;88.49;99024.00;1712451;84;21042;-95
2022/07/11 04:02:35;;;;;;;6.10;3.87;;;;;;;14.25;88.35;99019.56;1712132;84;21023;-94
2022/07/11 04:05:03;;;;;;;8.53;3.80;;;;;;;14.30;88.31;99021.08;1713216;84;20994;-94
2022/07/11 04:07:29;;;;;;;5.78;3.50;;;;;;;14.37;88.03;99022.12;1714537;83;21046;-94
2022/07/11 04:09:57;;;;;;;7.87;3.37;;;;;;;14.41;88.25;99025.00;1717996;83;21003;-93
2022/07/11 04:12:24;;;;;;;7.70;3.35;;;;;;;14.45;88.08;99022.65;1718046;82;21101;-94
2022/07/11 04:14:51;;;;;;;7.33;3.40;;;;;;;14.46;87.68;99026.95;1715362;83;21476;-94
2022/07/11 04:17:17;;;;;;;5.35;3.20;;;;;;;14.47;87.43;99030.81;1712021;84;20943;-94
2022/07/11 04:19:45;;;;;;;11.15;3.47;;;;;;;14.47;87.82;99028.20;1692856;84;21032;-93
2022/07/11 04:22:12;;;;;;;7.87;3.47;;;;;;;14.52;87.63;99027.56;1665559;85;21009;-94
2022/07/11 04:24:38;;;;;;;6.70;3.42;;;;;;;14.55;87.24;99034.42;1710271;84;21004;-94
2022/07/11 04:27:05;;;;;;;14.63;3.75;;;;;;;14.56;87.66;99033.95;1712548;84;21514;-95
2022/07/11 04:29:32;;;;;;;6.72;3.70;;;;;;;14.60;87.42;99035.09;1715900;82;21070;-96
2022/07/11 04:31:59;;;;;;;7.78;3.65;;;;;;;14.61;87.10;99029.42;1739900;82;21025;-94
2022/07/11 04:34:26;;;;;;;19.57;9.28;;;;;;;14.64;86.72;99031.89;1719646;82;21552;-95
2022/07/11 04:36:53;;;;;;;8.88;4.95;;;;;;;14.57;86.97;99034.39;1712545;84;20960;-94
2022/07/11 04:39:19;;;;;;;7.28;3.87;;;;;;;14.58;86.62;99033.00;1702871;83;21002;-94
2022/07/11 04:41:46;;;;;;;9.73;4.42;;;;;;;14.58;86.77;99045.23;1712495;84;21018;-94
2022/07/11 04:44:13;;;;;;;7.40;3.85;;;;;;;14.61;86.79;99042.50;1710756;84;21051;-94
2022/07/11 04:46:40;;;;;;;7.10;3.50;;;;;;;14.63;86.38;99047.22;1714298;84;21014;-94
2022/07/11 04:49:06;;;;;;;5.55;3.45;;;;;;;14.66;86.49;99036.59;1714779;84;21523;-95
2022/07/11 04:51:33;;;;;;;7.50;4.15;;;;;;;14.58;86.67;99048.70;1713953;84;21514;-94
2022/07/11 04:54:00;;;;;;;7.10;3.27;;;;;;;14.56;86.40;99050.96;1713737;84;21515;-94
2022/07/11 04:56:27;;;;;;;7.97;2.98;;;;;;;14.57;86.43;99048.32;1713567;84;21022;-94
2022/07/11 04:58:54;;;;;;;12.60;4.22;;;;;;;14.56;86.35;99053.14;1681104;85;21023;-93
2022/07/11 05:01:21;;;;;;;9.95;3.50;;;;;;;14.59;86.25;99052.19;1685455;85;21042;-93
2022/07/11 05:03:49;;;;;;;9.15;3.75;;;;;;;14.55;85.94;99050.59;1692154;84;20983;-93
2022/07/11 05:06:16;;;;;;;6.60;3.40;;;;;;;14.48;86.01;99050.84;1713915;84;21065;-92
2022/07/11 05:08:44;;;;;;;5.40;3.50;;;;;;;14.51;86.28;99061.63;1708479;83;21038;-95
2022/07/11 05:11:10;;;;;;;7.15;3.50;;;;;;;14.53;86.32;99063.26;1656327;85;21003;-91
2022/07/11 05:13:37;;;;;;;8.95;4.00;;;;;;;14.62;86.33;99062.50;1681288;85;21471;-91
2022/07/11 05:16:05;;;;;;;8.40;3.40;;;;;;;14.72;86.34;99062.50;1687457;83;20955;-92
2022/07/11 05:18:33;;;;;;;6.10;3.40;;;;;;;14.81;86.33;99065.20;1712768;83;21464;-92
2022/07/11 05:21:01;;;;;;;7.75;3.52;;;;;;;14.85;85.93;99066.77;1669355;85;20999;-93
2022/07/11 05:23:28;;;;;;;6.47;3.50;;;;;;;14.93;85.82;99078.23;1697238;84;21074;-92
2022/07/11 05:25:55;;;;;;;5.95;3.85;;;;;;;15.02;85.79;99076.50;1713218;84;20940;-92
2022/07/11 05:28:22;;;;;;;7.10;4.50;;;;;;;15.12;85.41;99073.89;1712903;83;21107;-93
2022/07/11 05:30:49;;;;;;;6.45;4.10;;;;;;;15.24;85.12;99071.16;1712991;83;20988;-91
2022/07/11 05:33:16;;;;;;;10.08;4.03;;;;;;;15.23;84.67;99070.79;1713028;84;21528;-91
2022/07/11 05:35:43;;;;;;;6.78;4.03;;;;;;;15.27;84.72;99072.34;1713073;83;21538;-92
2022/07/11 05:38:11;;;;;;;6.62;4.40;;;;;;;15.35;84.95;99075.94;1713211;84;21035;-93
2022/07/11 05:40:38;;;;;;;11.50;5.03;;;;;;;15.43;84.87;99077.75;1684212;84;21101;-92
2022/07/11 05:43:05;;;;;;;16.37;4.80;;;;;;;15.55;84.67;99080.27;1713088;83;21067;-91
2022/07/11 05:45:31;;;;;;;8.90;3.92;;;;;;;15.58;83.65;99081.42;1712901;83;21023;-88
2022/07/11 05:47:58;;;;;;;7.03;3.90;;;;;;;15.65;83.28;99090.25;1691629;83;20991;-91
2022/07/11 05:50:25;;;;;;;9.08;3.90;;;;;;;15.67;83.72;99087.09;1699700;83;21058;-92
2022/07/11 05:52:52;;;;;;;7.50;4.62;;;;;;;15.70;83.66;99088.28;1703308;84;21027;-92
2022/07/11 05:55:19;;;;;;;6.37;3.70;;;;;;;15.75;83.42;99089.88;1700616;84;21019;-89
2022/07/11 05:57:46;;;;;;;12.43;5.12;;;;;;;15.76;83.05;99098.98;1666734;85;21082;-93
2022/07/11 06:00:13;;;;;;;10.75;4.03;;;;;;;15.77;82.90;99095.89;1664851;86;21109;-94
2022/07/11 06:02:44;;;;;;;8.88;4.00;;;;;;;15.79;83.03;99105.84;1640199;86;21022;-93
2022/07/11 06:05:11;;;;;;;11.45;4.28;;;;;;;15.81;83.09;99101.37;1681907;85;21572;-92
2022/07/11 06:10:24;;;;;;;8.05;3.83;;;;;;;15.93;83.07;99106.05;1726349;83;20983;-94
2022/07/11 06:12:53;;;;;;;7.50;3.60;;;;;;;15.89;82.58;99111.05;1721993;83;21495;-92
2022/07/11 06:15:20;;;;;;;7.92;4.20;;;;;;;15.89;82.66;99109.27;1674698;85;21060;-91
2022/07/11 06:17:49;;;;;;;9.83;3.75;;;;;;;15.93;82.36;99114.38;1672806;85;20981;-92
2022/07/11 06:20:16;;;;;;;10.90;4.35;;;;;;;15.95;82.61;99106.82;1651475;86;21487;-91
2022/07/11 06:22:43;;;;;;;7.45;4.22;;;;;;;15.93;81.98;99111.76;1666621;85;21079;-93
2022/07/11 06:25:11;;;;;;;11.03;4.42;;;;;;;15.96;81.80;99112.47;1717996;83;21014;-92
2022/07/11 06:27:38;;;;;;;12.03;6.35;;;;;;;16.00;81.45;99118.42;1684234;84;21017;-93
2022/07/11 06:30:07;;;;;;;6.78;4.28;;;;;;;16.03;81.32;99111.70;1681519;84;21052;-90
2022/07/11 06:32:35;;;;;;;8.60;4.25;;;;;;;16.02;81.22;99114.80;1673452;84;20993;-86
2022/07/11 06:35:01;;;;;;;10.43;3.90;;;;;;;16.02;80.94;99116.11;1692795;84;21031;-84
2022/07/11 06:37:28;;;;;;;10.80;4.40;;;;;;;16.02;80.42;99117.89;1678264;84;21051;-83
2022/07/11 06:39:55;;;;;;;6.72;3.85;;;;;;;15.95;80.32;99111.22;1707578;83;20962;-87
2022/07/11 06:42:23;;;;;;;5.53;3.77;;;;;;;15.96;80.55;99109.84;1684251;84;21075;-86
2022/07/11 06:44:54;;;;;;;9.98;4.42;;;;;;;15.97;80.31;99120.70;1689202;84;21045;-91
2022/07/11 06:47:22;;;;;;;7.42;3.10;;;;;;;16.02;80.34;99112.65;1716112;83;21015;-87
2022/07/11 06:49:49;;;;;;;6.55;3.58;;;;;;;16.07;80.24;99119.34;1719411;83;21055;-90
2022/07/11 06:52:16;;;;;;;6.58;3.42;;;;;;;16.14;79.69;99120.40;1714501;82;21031;-88
2022/07/11 06:54:43;;;;;;;7.17;3.37;;;;;;;16.15;79.64;99120.77;1670441;85;21084;-91
2022/07/11 06:57:10;;;;;;;6.72;3.65;;;;;;;16.23;80.23;99122.09;1649109;86;21073;-91
2022/07/11 06:59:42;;;;;;;5.15;3.37;;;;;;;16.36;80.17;99121.06;1683906;84;21012;-92
2022/07/11 07:02:15;;;;;;;9.33;3.65;;;;;;;16.44;79.44;99123.31;1630875;85;21012;-90
2022/07/11 07:04:42;;;;;;;7.08;3.22;;;;;;;16.64;79.82;99113.98;1661381;85;20966;-93
2022/07/11 07:07:09;;;;;;;5.17;3.08;;;;;;;16.71;79.12;99109.27;1716972;83;20979;-89
2022/07/11 07:09:35;;;;;;;10.88;3.25;;;;;;;16.77;76.06;99110.75;1681378;84;21075;-91
2022/07/11 07:12:03;;;;;;;5.25;2.77;;;;;;;16.88;77.09;99111.09;1688199;84;20969;-90
2022/07/11 07:14:30;;;;;;;5.72;3.10;;;;;;;17.03;77.73;99109.02;1683876;84;21077;-90
2022/07/11 07:16:57;;;;;;;5.60;3.10;;;;;;;17.26;77.84;99105.17;1678445;84;20974;-89
2022/07/11 07:19:24;;;;;;;5.55;3.22;;;;;;;17.48;77.29;99108.83;1659884;86;21044;-90
2022/07/11 07:21:52;;;;;;;10.05;3.10;;;;;;;17.64;75.83;99101.44;1709661;83;21018;-92
2022/07/11 07:24:18;;;;;;;5.87;3.22;;;;;;;17.74;75.31;99103.11;1709760;83;21032;-90
2022/07/11 07:26:46;;;;;;;6.78;3.45;;;;;;;17.83;75.43;99106.12;1705061;83;20991;-92
2022/07/11 07:29:13;;;;;;;8.10;3.20;;;;;;;17.88;73.24;99108.48;1706749;83;21491;-88
2022/07/11 07:31:40;;;;;;;7.62;3.05;;;;;;;17.91;74.06;99114.07;1709580;83;20943;-83
2022/07/11 07:34:08;;;;;;;5.08;3.25;;;;;;;17.89;73.05;99112.36;1707549;83;21003;-87
2022/07/11 07:36:35;;;;;;;6.12;2.75;;;;;;;17.94;73.30;99112.56;1703579;83;20989;-86
2022/07/11 07:39:02;;;;;;;5.72;2.52;;;;;;;17.82;71.21;99112.27;1709994;83;21007;-85
2022/07/11 07:41:29;;;;;;;4.75;2.90;;;;;;;17.79;71.73;99116.39;1701896;83;21003;-84
2022/07/11 07:43:56;;;;;;;6.17;3.40;;;;;;;17.78;72.48;99116.00;1706536;83;21050;-90
2022/07/11 07:46:23;;;;;;;4.25;2.67;;;;;;;17.80;72.58;99118.55;1709092;83;21629;-85
2022/07/11 07:48:51;;;;;;;4.62;2.37;;;;;;;17.88;72.81;99115.91;1699913;83;21008;-88
2022/07/11 07:51:18;;;;;;;6.60;2.67;;;;;;;17.96;73.11;99115.96;1707706;83;21546;-86
2022/07/11 07:53:44;;;;;;;7.20;3.20;;;;;;;18.09;73.33;99111.25;1710447;82;21003;-85
2022/07/11 07:56:11;;;;;;;4.67;2.30;;;;;;;18.27;72.52;99114.63;1705485;83;20995;-87
2022/07/11 07:58:38;;;;;;;3.95;2.25;;;;;;;18.39;72.83;99109.63;1679722;85;21436;-81
2022/07/11 08:03:54;;;;;;;6.58;2.45;;;;;;;18.75;72.26;99110.59;1679874;84;20998;-84
2022/07/11 08:06:21;;;;;;;5.12;2.60;;;;;;;18.95;70.73;99107.29;1669720;84;21409;-90
2022/07/11 08:08:49;;;;;;;4.17;2.42;;;;;;;19.12;67.90;99108.90;1659463;84;21031;-89
2022/07/11 08:11:16;;;;;;;4.90;2.52;;;;;;;19.27;67.08;99106.19;1683369;84;20983;-88
2022/07/11 08:13:43;;;;;;;5.37;2.40;;;;;;;19.38;64.80;99113.94;1682547;84;20976;-86
2022/07/11 08:16:10;;;;;;;4.78;2.27;;;;;;;19.53;66.75;99108.18;1677160;84;20958;-86
2022/07/11 08:18:37;;;;;;;3.75;2.30;;;;;;;19.64;66.34;99106.58;1648307;86;21066;-87
2022/07/11 08:21:04;;;;;;;4.35;2.90;;;;;;;19.75;65.58;99110.36;1688601;84;21017;-87
2022/07/11 08:23:31;;;;;;;7.87;2.60;;;;;;;19.82;64.34;99113.00;1656114;85;21065;-88
2022/07/11 08:25:58;;;;;;;5.55;2.40;;;;;;;19.96;65.73;99109.02;1660222;86;21007;-85
2022/07/11 08:28:25;;;;;;;4.37;2.58;;;;;;;20.11;64.13;99110.29;1684074;84;21047;-86
2022/07/11 08:30:52;;;;;;;5.05;2.22;;;;;;;20.28;64.79;99105.26;1679845;84;21000;-87
2022/07/11 08:33:19;;;;;;;6.70;2.30;;;;;;;20.46;64.74;99102.24;1667148;84;21384;-89
2022/07/11 08:35:46;;;;;;;5.78;2.55;;;;;;;20.66;64.19;99112.00;1685297;83;21002;-87
2022/07/11 08:42:13;;;;;;;4.25;2.40;;;;;;;21.15;63.11;99104.73;1671497;84;20979;-86
2022/07/11 08:44:41;;;;;;;5.83;2.02;;;;;;;21.45;62.32;99107.08;1648491;85;21071;-86
2022/07/11 08:47:10;;;;;;;3.67;2.10;;;;;;;21.63;60.98;99116.84;1672480;84;21045;-84
2022/07/11 08:49:39;;;;;;;6.42;2.50;;;;;;;21.71;60.50;99108.85;1678575;84;21053;-83
2022/07/11 08:52:08;;;;;;;7.83;2.40;;;;;;;21.73;57.26;99112.23;1678098;84;21024;-86
2022/07/11 08:54:35;;;;;;;3.85;2.20;;;;;;;21.68;57.61;99111.70;1678783;85;21044;-88
2022/07/11 08:57:04;;;;;;;5.35;2.50;;;;;;;21.30;54.60;99114.71;1649887;86;21034;-86
2022/07/11 08:59:34;;;;;;;4.75;2.70;;;;;;;21.25;56.18;99108.91;1688865;84;20998;-83
2022/07/11 09:02:07;;;;;;;6.58;2.80;;;;;;;21.18;57.66;99103.19;1683569;84;20985;-84
2022/07/11 09:04:33;;;;;;;5.60;2.35;;;;;;;21.22;57.55;99103.83;1650569;85;21066;-82
2022/07/11 09:07:02;;;;;;;4.17;2.25;;;;;;;21.26;58.31;99105.30;1680342;84;21014;-83
2022/07/11 09:09:30;;;;;;;3.90;2.27;;;;;;;21.12;58.51;99099.64;1685522;84;21608;-83
2022/07/11 09:11:58;;;;;;;4.35;1.95;;;;;;;21.13;58.15;99103.99;1687726;84;20946;-83
2022/07/11 09:14:30;;;;;;;5.22;2.10;;;;;;;20.92;56.63;99109.41;1676184;84;21092;-85
2022/07/11 09:17:04;;;;;;;3.70;2.05;;;;;;;20.83;55.48;99109.09;1678217;84;20974;-82
2022/07/11 09:19:39;;;;;;;2.60;1.75;;;;;;;20.75;56.54;99103.92;1678547;84;21007;-85
2022/07/11 09:28:01;;;;;;;7.47;2.15;;;;;;;20.88;56.79;99106.61;1676897;84;21021;-87
2022/07/11 09:30:31;;;;;;;5.90;2.52;;;;;;;21.00;56.26;99106.61;1707242;82;21539;-88
2022/07/11 09:33:04;;;;;;;3.87;2.50;;;;;;;21.03;55.40;99108.22;1683769;84;21133;-86
2022/07/11 09:35:37;;;;;;;4.20;2.30;;;;;;;20.93;56.25;99101.39;1689187;84;21151;-87
2022/07/11 09:38:13;;;;;;;4.70;2.30;;;;;;;21.02;56.58;99099.91;1679279;84;20974;-87
2022/07/11 09:40:46;;;;;;;4.87;2.58;;;;;;;21.00;57.02;99095.20;1675486;84;20987;-89
2022/07/11 09:43:13;;;;;;;4.40;2.70;;;;;;;21.12;56.41;99100.13;1676616;84;21001;-86
2022/07/11 09:45:41;;;;;;;4.70;2.20;;;;;;;21.17;56.93;99088.74;1650591;85;21074;-85
2022/07/11 09:48:11;;;;;;;5.03;2.50;;;;;;;21.18;57.43;99086.48;1710852;82;21014;-86
2022/07/11 09:50:40;;;;;;;5.53;1.92;;;;;;;21.09;56.78;99091.07;1682104;84;21032;-83
2022/07/11 09:53:11;;;;;;;5.00;2.45;;;;;;;21.04;57.51;99093.55;1711848;82;20940;-88
2022/07/11 09:55:46;;;;;;;4.53;2.00;;;;;;;21.03;57.94;99102.94;1677863;84;20997;-87
2022/07/11 09:58:16;;;;;;;5.87;2.15;;;;;;;21.01;57.37;99098.23;1679978;84;21005;-91
2022/07/11 10:00:45;;;;;;;4.95;2.20;;;;;;;20.82;57.54;99102.09;1722912;82;21083;-90
2022/07/11 10:03:13;;;;;;;3.75;2.17;;;;;;;20.69;57.53;99098.61;1721484;83;20999;-91
2022/07/11 10:05:40;;;;;;;4.40;2.15;;;;;;;20.68;56.94;99090.30;1683198;84;20973;-90
2022/07/11 10:08:07;;;;;;;3.92;1.95;;;;;;;20.72;57.68;99086.50;1711843;82;21519;-90
2022/07/11 10:10:34;;;;;;;6.97;2.30;;;;;;;20.91;56.45;99087.44;1686799;84;21060;-90
2022/07/11 10:13:01;;;;;;;4.30;2.52;;;;;;;21.05;55.32;99089.14;1711777;83;20979;-89
2022/07/11 10:15:36;;;;;;;4.28;2.00;;;;;;;21.31;55.18;99087.34;1715991;82;20987;-90
2022/07/11 10:18:43;;;;;;;3.98;1.98;;;;;;;21.48;54.53;99090.14;1686737;84;21117;-89
2022/07/11 10:21:15;;;;;;;4.08;1.70;;;;;;;21.68;54.51;99079.95;1715063;82;20991;-90
2022/07/11 10:23:59;;;;;;;3.58;1.95;;;;;;;21.83;54.03;99077.55;1683833;84;21023;-90
2022/07/11 10:26:42;;;;;;;2.62;1.60;;;;;;;21.97;52.19;99077.88;1682865;84;20975;-89
2022/07/11 10:29:29;;;;;;;3.58;1.85;;;;;;;21.98;51.39;99088.33;1712607;82;21554;-92
2022/07/11 10:32:10;;;;;;;3.22;1.92;;;;;;;21.84;51.24;99096.42;1680006;84;21076;-91
2022/07/11 10:34:38;;;;;;;5.45;1.52;;;;;;;21.61;51.51;99112.14;1711113;82;21011;-90
2022/07/11 10:37:07;;;;;;;4.75;2.17;;;;;;;21.26;52.04;99124.65;1711395;82;21003;-89
2022/07/11 10:39:36;;;;;;;3.52;1.70;;;;;;;20.67;52.47;99132.17;1679487;84;21059;-84
2022/07/11 10:42:05;;;;;;;12.98;2.40;;;;;;;20.50;55.70;99153.55;1671344;84;20979;-84
2022/07/11 10:44:54;;;;;;;5.83;2.27;;;;;;;20.03;60.10;99157.83;1654901;85;21098;-81
2022/07/11 10:47:42;;;;;;;2.72;1.60;;;;;;;19.84;60.56;99159.44;1679882;84;20993;-82
2022/07/11 10:50:42;;;;;;;4.58;1.72;;;;;;;19.68;62.54;99142.84;1673089;84;21011;-87
2022/07/11 10:53:10;;;;;;;2.52;1.75;;;;;;;19.71;62.81;99131.25;1681425;84;21231;-87
2022/07/11 10:56:22;;;;;;;3.77;2.10;;;;;;;19.80;64.99;99126.28;1674346;84;21062;-89
2022/07/11 10:59:17;;;;;;;3.85;1.80;;;;;;;19.87;65.60;99118.81;1649415;85;21046;-88
2022/07/11 11:02:11;;;;;;;4.20;1.80;;;;;;;19.96;66.51;99110.33;1712008;82;21102;-90
2022/07/11 11:04:58;;;;;;;7.10;2.10;;;;;;;20.08;66.82;99120.58;1682550;84;21007;-90
2022/07/11 11:07:36;;;;;;;6.12;1.92;;;;;;;20.26;68.03;99109.31;1685368;84;21007;-91
2022/07/11 11:10:33;;;;;;;4.72;1.90;;;;;;;20.44;67.47;99102.81;1677022;84;20996;-87
2022/07/11 11:13:09;;;;;;;3.60;1.62;;;;;;;20.63;68.47;99100.30;1680274;84;21028;-89
2022/07/11 11:15:57;;;;;;;2.90;1.70;;;;;;;20.86;66.86;99107.55;1704949;83;20932;-89
2022/07/11 11:18:34;;;;;;;3.52;2.15;;;;;;;21.11;65.12;99105.03;1684795;84;21015;-90
2022/07/11 11:21:12;;;;;;;2.95;1.72;;;;;;;21.34;64.79;99119.32;1682015;84;21043;-87
2022/07/11 11:23:45;;;;;;;3.33;1.75;;;;;;;21.54;63.34;99116.64;1708622;82;21397;-91
2022/07/11 11:26:21;;;;;;;3.22;1.98;;;;;;;21.51;61.87;99119.52;1712439;83;20979;-89
2022/07/11 11:29:06;;;;;;;4.28;1.60;;;;;;;21.56;58.44;99122.19;1679905;84;20978;-88
2022/07/11 11:31:33;;;;;;;3.27;1.50;;;;;;;21.54;58.13;99118.80;1676912;84;21045;-90
2022/07/11 11:34:04;;;;;;;2.62;1.55;;;;;;;21.54;54.43;99121.94;1682869;84;21438;-88
2022/07/11 11:36:31;;;;;;;2.42;1.75;;;;;;;21.45;57.37;99126.08;1685227;84;20990;-90
2022/07/11 11:38:58;;;;;;;4.42;1.77;;;;;;;21.43;56.89;99124.85;1673601;84;21012;-88
2022/07/11 11:41:29;;;;;;;2.85;1.72;;;;;;;21.37;56.13;99122.61;1680580;84;21048;-87
2022/07/11 11:43:59;;;;;;;4.72;2.30;;;;;;;21.31;55.80;99120.39;1647680;86;21037;-88
2022/07/11 11:46:33;;;;;;;2.92;1.50;;;;;;;21.40;57.13;99117.09;1685661;84;21025;-82
2022/07/11 11:49:02;;;;;;;6.45;1.75;;;;;;;21.40;56.28;99120.22;1685773;84;21025;-85
2022/07/11 11:51:32;;;;;;;3.40;1.47;;;;;;;21.31;55.33;99127.00;1686755;84;21544;-87
2022/07/11 11:54:02;;;;;;;2.75;1.40;;;;;;;21.21;53.32;99135.20;1678640;84;21006;-85
2022/07/11 11:56:32;;;;;;;3.22;1.40;;;;;;;21.02;52.99;99133.78;1676056;85;21025;-93
2022/07/11 11:59:18;;;;;;;2.83;1.30;;;;;;;20.87;52.36;99126.91;1670174;85;20996;-90
2022/07/11 12:01:48;;;;;;;3.27;1.40;;;;;;;20.84;52.57;99114.73;1651075;86;21180;-88